createdAt,value
2019-03-05T00:00:01.853Z,0.00
2019-03-05T00:01:01.865Z,0.00
2019-03-05T00:02:01.880Z,0.00
2019-03-05T00:03:01.894Z,0.00
2019-03-05T00:04:01.907Z,0.00
2019-03-05T00:05:01.919Z,0.00
2019-03-05T00:06:01.934Z,0.00
2019-03-05T00:07:01.944Z,0.00
2019-03-05T00:08:01.961Z,0.00
2019-03-05T00:09:01.976Z,0.00
2019-03-05T00:10:01.991Z,0.00
2019-03-05T00:11:02.006Z,0.00
2019-03-05T00:12:02.012Z,0.00
2019-03-05T00:13:02.027Z,0.00
2019-03-05T00:14:02.051Z,0.00
2019-03-05T00:15:02.058Z,0.00
2019-03-05T00:16:02.071Z,0.00
2019-03-05T00:17:02.084Z,0.00
2019-03-05T00:18:02.099Z,0.00
2019-03-05T00:19:02.115Z,0.00
2019-03-05T00:20:02.130Z,0.00
2019-03-05T00:21:02.140Z,0.00
2019-03-05T00:22:02.208Z,0.00
2019-03-05T00:23:02.166Z,0.00
2019-03-05T00:24:02.206Z,0.00
2019-03-05T00:25:02.263Z,0.00
2019-03-05T00:26:02.265Z,0.00
2019-03-05T00:27:02.260Z,0.00
2019-03-05T00:28:02.260Z,0.00
2019-03-05T00:29:02.327Z,0.00
2019-03-05T00:30:02.319Z,0.00
2019-03-05T00:31:02.332Z,0.00
2019-03-05T00:32:02.322Z,0.00
2019-03-05T00:33:02.337Z,0.00
2019-03-05T00:34:02.325Z,0.00
2019-03-05T00:35:02.333Z,0.00
2019-03-05T00:36:02.350Z,0.00
2019-03-05T00:37:02.361Z,0.00
2019-03-05T00:38:02.375Z,0.00
2019-03-05T00:39:02.389Z,0.00
2019-03-05T00:40:02.403Z,0.00
2019-03-05T00:41:02.419Z,0.00
2019-03-05T00:42:02.433Z,0.00
2019-03-05T00:43:02.445Z,0.00
2019-03-05T00:44:02.464Z,0.00
2019-03-05T00:45:02.473Z,0.00
2019-03-05T00:46:02.488Z,0.00
2019-03-05T00:47:02.502Z,0.00
2019-03-05T00:48:02.515Z,0.00
2019-03-05T00:49:02.531Z,0.00
2019-03-05T00:50:02.550Z,0.00
2019-03-05T00:51:02.557Z,0.00
2019-03-05T00:52:02.573Z,0.00
2019-03-05T00:53:02.588Z,0.00
2019-03-05T00:54:02.599Z,0.00
2019-03-05T00:55:02.614Z,0.00
2019-03-05T00:56:02.630Z,0.00
2019-03-05T00:57:02.645Z,0.00
2019-03-05T00:58:02.658Z,0.00
2019-03-05T00:59:02.668Z,0.00
2019-03-05T01:00:02.686Z,0.00
2019-03-05T01:01:02.705Z,0.00
2019-03-05T01:02:02.714Z,0.00
2019-03-05T01:03:02.731Z,0.00
2019-03-05T01:04:02.743Z,0.00
2019-03-05T01:05:02.757Z,0.00
2019-03-05T01:06:02.771Z,0.00
2019-03-05T01:07:02.785Z,0.00
2019-03-05T01:08:02.802Z,0.00
2019-03-05T01:09:02.814Z,0.00
2019-03-05T01:10:02.828Z,0.00
2019-03-05T01:11:02.843Z,0.00
2019-03-05T01:12:02.859Z,0.00
2019-03-05T01:13:02.870Z,0.00
2019-03-05T01:14:02.886Z,0.00
2019-03-05T01:15:02.900Z,0.00
2019-03-05T01:16:02.915Z,0.00
2019-03-05T01:17:02.930Z,0.00
2019-03-05T01:18:02.943Z,0.00
2019-03-05T01:19:02.957Z,0.00
2019-03-05T01:20:02.973Z,0.00
2019-03-05T01:21:02.983Z,0.00
2019-03-05T01:22:03.001Z,0.00
2019-03-05T01:23:03.015Z,0.00
2019-03-05T01:24:03.030Z,0.00
2019-03-05T01:25:03.047Z,0.00
2019-03-05T01:26:03.057Z,0.00
2019-03-05T01:27:03.074Z,0.00
2019-03-05T01:28:03.088Z,0.00
2019-03-05T01:29:03.111Z,0.00
2019-03-05T01:30:03.116Z,0.00
2019-03-05T01:31:03.127Z,0.00
2019-03-05T01:32:03.150Z,0.00
2019-03-05T01:33:03.160Z,0.00
2019-03-05T01:34:03.171Z,0.00
2019-03-05T01:35:03.191Z,0.00
2019-03-05T01:36:03.200Z,0.00
2019-03-05T01:37:03.213Z,0.00
2019-03-05T01:38:03.230Z,0.00
2019-03-05T01:39:03.246Z,0.00
2019-03-05T01:40:03.260Z,0.00
2019-03-05T01:41:03.270Z,0.00
2019-03-05T01:42:03.286Z,0.00
2019-03-05T01:43:03.298Z,0.00
2019-03-05T01:44:03.313Z,0.00
2019-03-05T01:45:03.328Z,0.00
2019-03-05T01:46:03.340Z,0.00
2019-03-05T01:47:03.355Z,0.00
2019-03-05T01:48:03.371Z,0.00
2019-03-05T01:49:03.381Z,0.00
2019-03-05T01:50:03.395Z,0.00
2019-03-05T01:51:03.408Z,0.00
2019-03-05T01:52:03.426Z,0.00
2019-03-05T01:53:03.436Z,0.00
2019-03-05T01:54:03.451Z,0.00
2019-03-05T01:55:03.465Z,0.00
2019-03-05T01:56:03.479Z,0.00
2019-03-05T01:57:03.503Z,0.00
2019-03-05T01:58:03.504Z,0.00
2019-03-05T01:59:03.519Z,0.00
2019-03-05T02:00:03.531Z,0.00
2019-03-05T02:01:03.547Z,0.00
2019-03-05T02:02:03.564Z,0.00
2019-03-05T02:03:03.576Z,0.00
2019-03-05T02:04:03.588Z,0.00
2019-03-05T02:05:03.602Z,0.00
2019-03-05T02:06:03.619Z,0.00
2019-03-05T02:07:03.626Z,0.00
2019-03-05T02:08:03.640Z,0.00
2019-03-05T02:09:03.654Z,0.00
2019-03-05T02:10:03.669Z,0.00
2019-03-05T02:11:03.683Z,0.00
2019-03-05T02:12:03.693Z,0.00
2019-03-05T02:13:03.706Z,0.00
2019-03-05T02:14:03.722Z,0.00
2019-03-05T02:15:03.736Z,0.00
2019-03-05T02:16:03.753Z,0.00
2019-03-05T02:17:03.762Z,0.00
2019-03-05T02:18:03.777Z,0.00
2019-03-05T02:19:03.791Z,0.00
2019-03-05T02:20:03.808Z,0.00
2019-03-05T02:21:03.819Z,0.00
2019-03-05T02:22:03.830Z,0.00
2019-03-05T02:23:03.843Z,0.00
2019-03-05T02:24:03.858Z,0.00
2019-03-05T02:25:03.874Z,0.00
2019-03-05T02:26:03.884Z,0.00
2019-03-05T02:27:03.900Z,0.00
2019-03-05T02:28:03.957Z,0.00
2019-03-05T02:29:03.925Z,0.00
2019-03-05T02:30:03.938Z,0.00
2019-03-05T02:31:03.952Z,0.00
2019-03-05T02:32:03.965Z,0.00
2019-03-05T02:33:03.981Z,0.00
2019-03-05T02:34:03.993Z,0.00
2019-03-05T02:35:04.005Z,0.00
2019-03-05T02:36:04.036Z,0.00
2019-03-05T02:37:04.105Z,0.00
2019-03-05T02:38:05.682Z,0.00
2019-03-05T02:39:04.096Z,0.00
2019-03-05T02:40:04.117Z,0.00
2019-03-05T02:41:04.120Z,0.00
2019-03-05T02:42:04.162Z,0.00
2019-03-05T02:43:04.181Z,0.00
2019-03-05T02:44:04.161Z,0.00
2019-03-05T02:45:04.175Z,0.00
2019-03-05T02:46:04.155Z,0.00
2019-03-05T02:47:04.170Z,0.00
2019-03-05T02:48:04.181Z,0.00
2019-03-05T02:49:04.196Z,0.00
2019-03-05T02:50:04.205Z,0.00
2019-03-05T02:51:04.220Z,0.00
2019-03-05T02:52:04.231Z,0.00
2019-03-05T02:53:04.242Z,0.00
2019-03-05T02:54:04.257Z,0.00
2019-03-05T02:55:04.275Z,0.00
2019-03-05T02:56:04.285Z,0.00
2019-03-05T02:57:04.299Z,0.00
2019-03-05T02:58:04.311Z,0.00
2019-03-05T02:59:04.325Z,0.00
2019-03-05T03:00:04.345Z,0.00
2019-03-05T03:01:04.351Z,0.00
2019-03-05T03:02:04.363Z,0.00
2019-03-05T03:03:04.377Z,0.00
2019-03-05T03:04:04.391Z,0.00
2019-03-05T03:05:04.402Z,0.00
2019-03-05T03:06:04.415Z,0.00
2019-03-05T03:07:04.429Z,0.00
2019-03-05T03:08:04.451Z,0.00
2019-03-05T03:09:04.454Z,0.00
2019-03-05T03:10:04.471Z,0.00
2019-03-05T03:11:04.488Z,0.00
2019-03-05T03:12:04.496Z,0.00
2019-03-05T03:13:04.508Z,0.00
2019-03-05T03:14:04.522Z,0.00
2019-03-05T03:15:04.533Z,0.00
2019-03-05T03:16:04.552Z,0.00
2019-03-05T03:17:04.580Z,0.00
2019-03-05T03:18:04.577Z,0.00
2019-03-05T03:19:04.595Z,0.00
2019-03-05T03:20:04.601Z,0.00
2019-03-05T03:21:04.618Z,0.00
2019-03-05T03:22:04.627Z,0.00
2019-03-05T03:23:04.644Z,0.00
2019-03-05T03:24:04.657Z,0.00
2019-03-05T03:25:04.667Z,0.00
2019-03-05T03:26:04.685Z,0.00
2019-03-05T03:27:04.944Z,0.00
2019-03-05T03:28:04.712Z,0.00
2019-03-05T03:29:04.722Z,0.00
2019-03-05T03:30:04.735Z,0.00
2019-03-05T03:31:04.760Z,0.00
2019-03-05T03:32:04.805Z,0.00
2019-03-05T03:33:04.781Z,0.00
2019-03-05T03:34:04.790Z,0.00
2019-03-05T03:35:04.806Z,0.00
2019-03-05T03:36:04.815Z,0.00
2019-03-05T03:37:05.135Z,0.00
2019-03-05T03:38:04.844Z,0.00
2019-03-05T03:39:04.856Z,0.00
2019-03-05T03:40:06.160Z,0.00
2019-03-05T03:41:04.884Z,0.00
2019-03-05T03:42:05.150Z,0.00
2019-03-05T03:43:04.914Z,0.00
2019-03-05T03:44:04.924Z,0.00
2019-03-05T03:45:04.948Z,0.00
2019-03-05T03:46:04.953Z,0.00
2019-03-05T03:47:04.974Z,0.00
2019-03-05T03:48:04.988Z,0.00
2019-03-05T03:49:05.020Z,0.00
2019-03-05T03:50:05.012Z,0.00
2019-03-05T03:51:05.025Z,0.00
2019-03-05T03:52:05.036Z,0.00
2019-03-05T03:53:05.129Z,0.00
2019-03-05T03:54:05.070Z,0.00
2019-03-05T03:55:05.077Z,0.00
2019-03-05T03:56:05.093Z,0.00
2019-03-05T03:57:05.104Z,0.00
2019-03-05T03:58:05.120Z,0.00
2019-03-05T03:59:05.131Z,0.00
2019-03-05T04:00:05.147Z,0.00
2019-03-05T04:01:06.933Z,0.00
2019-03-05T04:02:05.175Z,0.00
2019-03-05T04:03:05.189Z,0.00
2019-03-05T04:04:05.201Z,0.00
2019-03-05T04:05:05.219Z,0.00
2019-03-05T04:06:05.232Z,0.00
2019-03-05T04:07:05.244Z,0.00
2019-03-05T04:08:05.258Z,0.00
2019-03-05T04:09:05.279Z,0.00
2019-03-05T04:10:05.288Z,0.00
2019-03-05T04:11:05.302Z,0.00
2019-03-05T04:12:05.322Z,0.00
2019-03-05T04:13:05.329Z,0.00
2019-03-05T04:14:05.346Z,0.00
2019-03-05T04:15:05.356Z,0.00
2019-03-05T04:16:05.375Z,0.00
2019-03-05T04:17:05.389Z,0.00
2019-03-05T04:18:05.406Z,0.00
2019-03-05T04:19:05.427Z,0.00
2019-03-05T04:20:05.427Z,0.00
2019-03-05T04:21:05.440Z,0.00
2019-03-05T04:22:05.457Z,0.00
2019-03-05T04:23:05.467Z,0.00
2019-03-05T04:24:05.502Z,0.00
2019-03-05T04:25:05.497Z,0.00
2019-03-05T04:26:05.510Z,0.00
2019-03-05T04:27:05.524Z,0.00
2019-03-05T04:28:05.539Z,0.00
2019-03-05T04:29:05.554Z,0.00
2019-03-05T04:30:05.567Z,0.00
2019-03-05T04:31:05.583Z,0.00
2019-03-05T04:32:05.596Z,0.00
2019-03-05T04:33:05.610Z,0.00
2019-03-05T04:34:05.625Z,0.00
2019-03-05T04:35:05.639Z,0.00
2019-03-05T04:36:05.653Z,0.00
2019-03-05T04:37:05.665Z,0.00
2019-03-05T04:38:05.679Z,0.00
2019-03-05T04:39:05.694Z,0.00
2019-03-05T04:40:05.711Z,0.00
2019-03-05T04:41:05.723Z,0.00
2019-03-05T04:42:05.738Z,0.00
2019-03-05T04:43:05.752Z,0.00
2019-03-05T04:44:05.766Z,0.00
2019-03-05T04:45:05.779Z,0.00
2019-03-05T04:46:05.799Z,0.00
2019-03-05T04:47:05.812Z,0.00
2019-03-05T04:48:05.826Z,0.00
2019-03-05T04:49:05.836Z,0.00
2019-03-05T04:50:05.858Z,0.00
2019-03-05T04:51:05.958Z,0.00
2019-03-05T04:52:05.945Z,0.00
2019-03-05T04:53:05.934Z,0.00
2019-03-05T04:54:05.955Z,0.00
2019-03-05T04:55:05.976Z,0.00
2019-03-05T04:56:06.003Z,0.00
2019-03-05T04:57:05.993Z,0.00
2019-03-05T04:58:05.993Z,0.00
2019-03-05T04:59:05.996Z,0.00
2019-03-05T05:00:05.997Z,0.00
2019-03-05T05:01:06.006Z,0.00
2019-03-05T05:02:06.020Z,0.00
2019-03-05T05:03:06.033Z,0.00
2019-03-05T05:04:06.050Z,0.00
2019-03-05T05:05:06.063Z,0.00
2019-03-05T05:06:06.079Z,0.00
2019-03-05T05:07:06.089Z,0.00
2019-03-05T05:08:06.105Z,0.00
2019-03-05T05:09:06.120Z,0.00
2019-03-05T05:10:06.133Z,0.00
2019-03-05T05:11:06.146Z,0.00
2019-03-05T05:12:06.163Z,0.00
2019-03-05T05:13:06.175Z,0.00
2019-03-05T05:14:06.192Z,0.00
2019-03-05T05:15:06.206Z,0.00
2019-03-05T05:16:06.218Z,0.00
2019-03-05T05:17:06.231Z,0.00
2019-03-05T05:18:06.246Z,0.00
2019-03-05T05:19:06.261Z,0.00
2019-03-05T05:20:06.277Z,0.00
2019-03-05T05:21:06.288Z,0.00
2019-03-05T05:22:06.302Z,0.00
2019-03-05T05:23:06.316Z,0.00
2019-03-05T05:24:06.333Z,0.00
2019-03-05T05:25:06.343Z,0.00
2019-03-05T05:26:06.359Z,0.00
2019-03-05T05:27:06.374Z,0.00
2019-03-05T05:28:06.389Z,0.00
2019-03-05T05:29:06.400Z,0.00
2019-03-05T05:30:06.416Z,0.00
2019-03-05T05:31:06.431Z,0.00
2019-03-05T05:32:06.443Z,0.00
2019-03-05T05:33:06.458Z,0.00
2019-03-05T05:34:06.469Z,0.00
2019-03-05T05:35:06.485Z,0.00
2019-03-05T05:36:06.500Z,0.00
2019-03-05T05:37:06.516Z,0.00
2019-03-05T05:38:06.529Z,0.00
2019-03-05T05:39:06.553Z,0.00
2019-03-05T05:40:06.555Z,0.00
2019-03-05T05:41:06.570Z,0.00
2019-03-05T05:42:06.584Z,0.00
2019-03-05T05:43:06.600Z,0.00
2019-03-05T05:44:06.613Z,0.00
2019-03-05T05:45:06.627Z,0.00
2019-03-05T05:46:06.640Z,5.63
2019-03-05T05:47:06.654Z,5.63
2019-03-05T05:48:06.668Z,5.63
2019-03-05T05:49:06.684Z,5.63
2019-03-05T05:50:06.700Z,5.63
2019-03-05T05:51:06.712Z,5.63
2019-03-05T05:52:06.726Z,11.25
2019-03-05T05:53:06.740Z,11.25
2019-03-05T05:54:06.755Z,11.25
2019-03-05T05:55:06.768Z,11.25
2019-03-05T05:56:06.783Z,16.88
2019-03-05T05:57:06.796Z,16.88
2019-03-05T05:58:06.809Z,16.88
2019-03-05T05:59:06.827Z,16.88
2019-03-05T06:00:06.838Z,22.50
2019-03-05T06:01:06.851Z,22.50
2019-03-05T06:02:06.864Z,28.13
2019-03-05T06:03:06.881Z,28.13
2019-03-05T06:04:06.894Z,28.13
2019-03-05T06:05:06.907Z,28.13
2019-03-05T06:06:06.920Z,33.75
2019-03-05T06:07:06.943Z,33.75
2019-03-05T06:08:06.954Z,39.38
2019-03-05T06:09:06.963Z,39.38
2019-03-05T06:10:06.977Z,45.00
2019-03-05T06:11:06.991Z,45.00
2019-03-05T06:12:07.008Z,50.63
2019-03-05T06:13:07.019Z,50.63
2019-03-05T06:14:07.032Z,56.25
2019-03-05T06:15:07.047Z,56.25
2019-03-05T06:16:07.060Z,56.25
2019-03-05T06:17:07.080Z,61.88
2019-03-05T06:18:07.088Z,61.88
2019-03-05T06:19:07.105Z,61.88
2019-03-05T06:20:07.122Z,67.50
2019-03-05T06:21:07.133Z,73.13
2019-03-05T06:22:07.152Z,73.13
2019-03-05T06:23:07.162Z,78.75
2019-03-05T06:24:07.175Z,84.38
2019-03-05T06:25:07.194Z,84.38
2019-03-05T06:26:08.716Z,84.38
2019-03-05T06:27:07.214Z,90.00
2019-03-05T06:28:07.233Z,90.00
2019-03-05T06:29:07.245Z,95.63
2019-03-05T06:30:07.258Z,95.63
2019-03-05T06:31:07.274Z,95.63
2019-03-05T06:32:07.287Z,95.63
2019-03-05T06:33:07.301Z,101.25
2019-03-05T06:34:07.324Z,101.25
2019-03-05T06:35:07.331Z,106.88
2019-03-05T06:36:07.345Z,112.50
2019-03-05T06:37:07.358Z,118.13
2019-03-05T06:38:07.373Z,123.75
2019-03-05T06:39:07.388Z,129.38
2019-03-05T06:40:07.402Z,135.00
2019-03-05T06:41:07.414Z,135.00
2019-03-05T06:42:07.431Z,146.25
2019-03-05T06:43:07.444Z,151.88
2019-03-05T06:44:09.356Z,157.50
2019-03-05T06:45:07.470Z,163.13
2019-03-05T06:46:07.490Z,174.38
2019-03-05T06:47:07.503Z,174.38
2019-03-05T06:48:07.517Z,174.38
2019-03-05T06:49:07.530Z,180.00
2019-03-05T06:50:07.543Z,180.00
2019-03-05T06:51:07.560Z,180.00
2019-03-05T06:52:07.574Z,185.63
2019-03-05T06:53:07.589Z,185.63
2019-03-05T06:54:07.609Z,191.25
2019-03-05T06:55:07.615Z,191.25
2019-03-05T06:56:07.631Z,185.63
2019-03-05T06:57:07.644Z,185.63
2019-03-05T06:58:07.657Z,191.25
2019-03-05T06:59:07.677Z,191.25
2019-03-05T07:00:07.694Z,191.25
2019-03-05T07:01:07.747Z,191.25
2019-03-05T07:02:07.778Z,191.25
2019-03-05T07:03:07.793Z,191.25
2019-03-05T07:04:07.777Z,191.25
2019-03-05T07:05:07.809Z,191.25
2019-03-05T07:06:07.851Z,196.88
2019-03-05T07:07:07.841Z,196.88
2019-03-05T07:08:07.844Z,196.88
2019-03-05T07:09:07.844Z,202.50
2019-03-05T07:10:07.837Z,208.13
2019-03-05T07:11:07.848Z,213.75
2019-03-05T07:12:07.861Z,219.38
2019-03-05T07:13:07.874Z,225.00
2019-03-05T07:14:07.892Z,236.25
2019-03-05T07:15:07.906Z,241.88
2019-03-05T07:16:07.921Z,247.50
2019-03-05T07:17:07.936Z,247.50
2019-03-05T07:18:07.954Z,253.13
2019-03-05T07:19:07.962Z,253.13
2019-03-05T07:20:07.980Z,258.75
2019-03-05T07:21:07.992Z,258.75
2019-03-05T07:22:08.006Z,264.38
2019-03-05T07:23:08.023Z,275.63
2019-03-05T07:24:08.036Z,275.63
2019-03-05T07:25:08.053Z,270.00
2019-03-05T07:26:08.066Z,264.38
2019-03-05T07:27:08.083Z,264.38
2019-03-05T07:28:08.098Z,258.75
2019-03-05T07:29:08.111Z,264.38
2019-03-05T07:30:08.124Z,275.63
2019-03-05T07:31:08.141Z,286.88
2019-03-05T07:32:08.157Z,376.88
2019-03-05T07:33:08.169Z,343.13
2019-03-05T07:34:08.184Z,371.25
2019-03-05T07:35:08.200Z,455.63
2019-03-05T07:36:08.215Z,427.50
2019-03-05T07:37:08.227Z,371.25
2019-03-05T07:38:08.244Z,331.88
2019-03-05T07:39:08.260Z,315.00
2019-03-05T07:40:08.273Z,309.38
2019-03-05T07:41:08.288Z,326.25
2019-03-05T07:42:08.305Z,292.50
2019-03-05T07:43:08.321Z,286.88
2019-03-05T07:44:08.332Z,298.13
2019-03-05T07:45:08.351Z,427.50
2019-03-05T07:46:08.365Z,348.75
2019-03-05T07:47:08.380Z,416.25
2019-03-05T07:48:08.404Z,511.88
2019-03-05T07:49:08.411Z,399.38
2019-03-05T07:50:08.424Z,371.25
2019-03-05T07:51:08.441Z,405.00
2019-03-05T07:52:08.457Z,376.88
2019-03-05T07:53:08.473Z,438.75
2019-03-05T07:54:08.489Z,438.75
2019-03-05T07:55:13.619Z,388.13
2019-03-05T07:56:08.523Z,410.63
2019-03-05T07:57:08.533Z,405.00
2019-03-05T07:58:08.551Z,421.88
2019-03-05T07:59:08.566Z,405.00
2019-03-05T08:00:08.585Z,523.13
2019-03-05T08:01:08.599Z,478.13
2019-03-05T08:02:08.611Z,388.13
2019-03-05T08:03:08.631Z,360.00
2019-03-05T08:04:08.648Z,388.13
2019-03-05T08:05:08.666Z,371.25
2019-03-05T08:06:08.675Z,360.00
2019-03-05T08:07:08.702Z,421.88
2019-03-05T08:08:08.713Z,421.88
2019-03-05T08:09:08.725Z,416.25
2019-03-05T08:10:08.740Z,438.75
2019-03-05T08:11:08.757Z,556.88
2019-03-05T08:12:08.775Z,495.00
2019-03-05T08:13:08.789Z,478.13
2019-03-05T08:14:08.803Z,376.88
2019-03-05T08:15:08.820Z,354.38
2019-03-05T08:16:08.837Z,331.88
2019-03-05T08:17:08.854Z,360.00
2019-03-05T08:18:08.875Z,320.63
2019-03-05T08:19:08.961Z,331.88
2019-03-05T08:20:08.909Z,320.63
2019-03-05T08:21:08.921Z,500.63
2019-03-05T08:22:09.007Z,405.00
2019-03-05T08:23:08.950Z,405.00
2019-03-05T08:24:08.969Z,427.50
2019-03-05T08:25:08.984Z,382.50
2019-03-05T08:26:08.999Z,433.13
2019-03-05T08:27:09.017Z,365.63
2019-03-05T08:28:09.035Z,348.75
2019-03-05T08:29:09.051Z,354.38
2019-03-05T08:30:14.192Z,275.63
2019-03-05T08:31:09.087Z,270.00
2019-03-05T08:32:09.100Z,230.63
2019-03-05T08:33:09.116Z,202.50
2019-03-05T08:34:09.132Z,286.88
2019-03-05T08:35:09.158Z,399.38
2019-03-05T08:36:09.177Z,388.13
2019-03-05T08:37:09.183Z,376.88
2019-03-05T08:38:09.196Z,421.88
2019-03-05T08:39:09.214Z,540.00
2019-03-05T08:40:09.232Z,506.25
2019-03-05T08:41:09.249Z,376.88
2019-03-05T08:42:09.263Z,416.25
2019-03-05T08:43:09.281Z,360.00
2019-03-05T08:44:09.299Z,354.38
2019-03-05T08:45:09.311Z,365.63
2019-03-05T08:46:09.329Z,455.63
2019-03-05T08:47:09.345Z,365.63
2019-03-05T08:48:09.362Z,343.13
2019-03-05T08:49:09.379Z,495.00
2019-03-05T08:50:09.398Z,596.25
2019-03-05T08:51:09.413Z,798.75
2019-03-05T08:52:09.430Z,630.00
2019-03-05T08:53:09.444Z,596.25
2019-03-05T08:54:09.487Z,495.00
2019-03-05T08:55:09.478Z,427.50
2019-03-05T08:56:09.493Z,489.38
2019-03-05T08:57:09.509Z,455.63
2019-03-05T08:58:09.528Z,450.00
2019-03-05T08:59:09.557Z,472.50
2019-03-05T09:00:09.638Z,489.38
2019-03-05T09:01:09.644Z,421.88
2019-03-05T09:02:09.629Z,421.88
2019-03-05T09:03:09.640Z,354.38
2019-03-05T09:04:09.707Z,360.00
2019-03-05T09:05:09.702Z,433.13
2019-03-05T09:06:09.692Z,478.13
2019-03-05T09:07:09.694Z,511.88
2019-03-05T09:08:09.690Z,540.00
2019-03-05T09:09:09.709Z,545.63
2019-03-05T09:10:09.725Z,630.00
2019-03-05T09:11:09.740Z,703.13
2019-03-05T09:12:09.762Z,765.00
2019-03-05T09:13:09.777Z,720.00
2019-03-05T09:14:09.792Z,736.88
2019-03-05T09:15:09.810Z,675.00
2019-03-05T09:16:09.826Z,461.25
2019-03-05T09:17:09.842Z,405.00
2019-03-05T09:18:09.859Z,405.00
2019-03-05T09:19:09.874Z,466.88
2019-03-05T09:20:09.892Z,461.25
2019-03-05T09:21:09.909Z,450.00
2019-03-05T09:22:09.926Z,511.88
2019-03-05T09:23:09.943Z,534.38
2019-03-05T09:24:09.962Z,551.25
2019-03-05T09:25:09.975Z,601.88
2019-03-05T09:26:09.992Z,624.38
2019-03-05T09:27:10.013Z,742.50
2019-03-05T09:28:10.028Z,551.25
2019-03-05T09:29:10.046Z,461.25
2019-03-05T09:30:10.061Z,579.38
2019-03-05T09:31:10.078Z,725.63
2019-03-05T09:32:10.096Z,703.13
2019-03-05T09:33:10.112Z,770.63
2019-03-05T09:34:10.132Z,736.88
2019-03-05T09:35:10.149Z,590.63
2019-03-05T09:36:10.165Z,506.25
2019-03-05T09:37:10.180Z,478.13
2019-03-05T09:38:10.198Z,500.63
2019-03-05T09:39:10.215Z,489.38
2019-03-05T09:40:10.234Z,528.75
2019-03-05T09:41:10.250Z,517.50
2019-03-05T09:42:10.265Z,405.00
2019-03-05T09:43:10.285Z,511.88
2019-03-05T09:44:10.303Z,455.63
2019-03-05T09:45:10.317Z,348.75
2019-03-05T09:46:10.334Z,253.13
2019-03-05T09:47:10.351Z,208.13
2019-03-05T09:48:10.372Z,219.38
2019-03-05T09:49:10.386Z,270.00
2019-03-05T09:50:10.406Z,354.38
2019-03-05T09:51:10.424Z,298.13
2019-03-05T09:52:10.441Z,410.63
2019-03-05T09:53:10.455Z,461.25
2019-03-05T09:54:10.473Z,393.75
2019-03-05T09:55:10.487Z,388.13
2019-03-05T09:56:10.507Z,348.75
2019-03-05T09:57:10.524Z,360.00
2019-03-05T09:58:10.541Z,286.88
2019-03-05T09:59:10.557Z,315.00
2019-03-05T10:00:10.573Z,309.38
2019-03-05T10:01:10.605Z,303.75
2019-03-05T10:02:10.608Z,315.00
2019-03-05T10:03:10.627Z,393.75
2019-03-05T10:04:10.645Z,376.88
2019-03-05T10:05:10.659Z,337.50
2019-03-05T10:06:10.675Z,320.63
2019-03-05T10:07:18.563Z,393.75
2019-03-05T10:08:10.710Z,596.25
2019-03-05T10:09:10.726Z,686.25
2019-03-05T10:10:10.745Z,534.38
2019-03-05T10:11:10.759Z,433.13
2019-03-05T10:12:10.776Z,399.38
2019-03-05T10:13:13.133Z,506.25
2019-03-05T10:14:10.809Z,652.50
2019-03-05T10:15:10.832Z,725.63
2019-03-05T10:16:10.845Z,736.88
2019-03-05T10:17:10.860Z,765.00
2019-03-05T10:18:13.062Z,810.00
2019-03-05T10:19:10.894Z,736.88
2019-03-05T10:20:10.917Z,686.25
2019-03-05T10:21:11.876Z,630.00
2019-03-05T10:22:10.948Z,635.63
2019-03-05T10:23:10.966Z,708.75
2019-03-05T10:24:11.111Z,843.75
2019-03-05T10:25:12.849Z,855.00
2019-03-05T10:26:11.014Z,798.75
2019-03-05T10:27:11.032Z,714.38
2019-03-05T10:28:11.049Z,680.63
2019-03-05T10:29:11.075Z,556.88
2019-03-05T10:30:11.081Z,534.38
2019-03-05T10:31:11.102Z,450.00
2019-03-05T10:32:11.121Z,461.25
2019-03-05T10:33:11.136Z,410.63
2019-03-05T10:34:11.156Z,472.50
2019-03-05T10:35:11.177Z,478.13
2019-03-05T10:36:11.200Z,545.63
2019-03-05T10:37:14.664Z,540.00
2019-03-05T10:38:11.224Z,551.25
2019-03-05T10:39:11.243Z,669.38
2019-03-05T10:40:11.260Z,821.25
2019-03-05T10:41:11.279Z,855.00
2019-03-05T10:42:11.294Z,832.50
2019-03-05T10:43:11.315Z,860.63
2019-03-05T10:44:11.332Z,815.63
2019-03-05T10:45:11.347Z,697.50
2019-03-05T10:46:11.367Z,843.75
2019-03-05T10:47:11.386Z,826.88
2019-03-05T10:48:11.418Z,815.63
2019-03-05T10:49:11.482Z,725.63
2019-03-05T10:50:15.267Z,686.25
2019-03-05T10:51:11.493Z,669.38
2019-03-05T10:52:11.499Z,489.38
2019-03-05T10:53:11.561Z,450.00
2019-03-05T10:54:11.559Z,680.63
2019-03-05T10:55:11.567Z,781.88
2019-03-05T10:56:11.558Z,787.50
2019-03-05T10:57:11.568Z,748.13
2019-03-05T10:58:11.581Z,888.75
2019-03-05T10:59:11.602Z,843.75
2019-03-05T11:00:11.619Z,669.38
2019-03-05T11:01:11.636Z,635.63
2019-03-05T11:02:11.655Z,630.00
2019-03-05T11:03:11.670Z,596.25
2019-03-05T11:04:11.691Z,500.63
2019-03-05T11:05:11.708Z,562.50
2019-03-05T11:06:11.730Z,714.38
2019-03-05T11:07:11.745Z,680.63
2019-03-05T11:08:11.764Z,613.13
2019-03-05T11:09:11.780Z,551.25
2019-03-05T11:10:11.797Z,511.88
2019-03-05T11:11:13.858Z,562.50
2019-03-05T11:12:11.839Z,534.38
2019-03-05T11:13:11.854Z,500.63
2019-03-05T11:14:11.871Z,495.00
2019-03-05T11:15:11.893Z,472.50
2019-03-05T11:16:11.911Z,360.00
2019-03-05T11:17:11.930Z,230.63
2019-03-05T11:18:11.946Z,174.38
2019-03-05T11:19:11.969Z,157.50
2019-03-05T11:20:11.984Z,168.75
2019-03-05T11:21:12.002Z,219.38
2019-03-05T11:22:12.020Z,331.88
2019-03-05T11:23:12.039Z,466.88
2019-03-05T11:24:12.060Z,540.00
2019-03-05T11:25:12.075Z,444.38
2019-03-05T11:26:12.091Z,365.63
2019-03-05T11:27:12.109Z,500.63
2019-03-05T11:28:12.130Z,759.38
2019-03-05T11:29:12.146Z,753.75
2019-03-05T11:30:12.163Z,607.50
2019-03-05T11:31:12.186Z,517.50
2019-03-05T11:32:12.203Z,461.25
2019-03-05T11:33:12.219Z,450.00
2019-03-05T11:34:13.205Z,450.00
2019-03-05T11:35:12.258Z,450.00
2019-03-05T11:36:12.273Z,511.88
2019-03-05T11:37:12.288Z,562.50
2019-03-05T11:38:12.312Z,545.63
2019-03-05T11:39:12.324Z,545.63
2019-03-05T11:40:20.742Z,534.38
2019-03-05T11:41:12.361Z,478.13
2019-03-05T11:42:12.379Z,466.88
2019-03-05T11:43:12.926Z,382.50
2019-03-05T11:44:12.415Z,236.25
2019-03-05T11:45:12.441Z,191.25
2019-03-05T11:46:12.450Z,315.00
2019-03-05T11:47:12.472Z,360.00
2019-03-05T11:48:12.489Z,281.25
2019-03-05T11:49:12.511Z,202.50
2019-03-05T11:50:12.524Z,185.63
2019-03-05T11:51:12.544Z,163.13
2019-03-05T11:52:12.560Z,163.13
2019-03-05T11:53:12.577Z,180.00
2019-03-05T11:54:12.597Z,258.75
2019-03-05T11:55:12.613Z,388.13
2019-03-05T11:56:12.631Z,331.88
2019-03-05T11:57:12.648Z,225.00
2019-03-05T11:58:12.665Z,168.75
2019-03-05T11:59:12.685Z,135.00
2019-03-05T12:00:12.701Z,129.38
2019-03-05T12:01:12.719Z,129.38
2019-03-05T12:02:21.546Z,112.50
2019-03-05T12:03:12.755Z,101.25
2019-03-05T12:04:12.774Z,95.63
2019-03-05T12:05:12.788Z,90.00
2019-03-05T12:06:12.806Z,90.00
2019-03-05T12:07:12.824Z,95.63
2019-03-05T12:08:12.839Z,112.50
2019-03-05T12:09:12.860Z,129.38
2019-03-05T12:10:12.874Z,174.38
2019-03-05T12:11:12.895Z,219.38
2019-03-05T12:12:12.909Z,236.25
2019-03-05T12:13:14.432Z,230.63
2019-03-05T12:14:12.942Z,225.00
2019-03-05T12:15:12.960Z,196.88
2019-03-05T12:16:12.977Z,208.13
2019-03-05T12:17:12.995Z,185.63
2019-03-05T12:18:13.011Z,151.88
2019-03-05T12:19:13.027Z,185.63
2019-03-05T12:20:13.044Z,236.25
2019-03-05T12:21:13.069Z,472.50
2019-03-05T12:22:13.077Z,624.38
2019-03-05T12:23:13.095Z,500.63
2019-03-05T12:24:13.111Z,393.75
2019-03-05T12:25:13.126Z,309.38
2019-03-05T12:26:13.148Z,253.13
2019-03-05T12:27:13.160Z,236.25
2019-03-05T12:28:13.176Z,241.88
2019-03-05T12:29:13.194Z,303.75
2019-03-05T12:30:13.211Z,315.00
2019-03-05T12:31:13.225Z,275.63
2019-03-05T12:32:15.326Z,281.25
2019-03-05T12:33:13.257Z,286.88
2019-03-05T12:34:13.277Z,270.00
2019-03-05T12:35:13.353Z,258.75
2019-03-05T12:36:13.363Z,258.75
2019-03-05T12:37:13.365Z,241.88
2019-03-05T12:38:13.366Z,253.13
2019-03-05T12:39:13.441Z,270.00
2019-03-05T12:40:13.430Z,286.88
2019-03-05T12:41:13.434Z,298.13
2019-03-05T12:42:13.430Z,354.38
2019-03-05T12:43:13.460Z,365.63
2019-03-05T12:44:13.439Z,303.75
2019-03-05T12:45:13.456Z,298.13
2019-03-05T12:46:13.472Z,298.13
2019-03-05T12:47:15.772Z,298.13
2019-03-05T12:48:13.508Z,292.50
2019-03-05T12:49:13.520Z,281.25
2019-03-05T12:50:13.536Z,281.25
2019-03-05T12:51:13.553Z,315.00